Aviation Digital Data Service (ADDS)

Output produced by METARs form (1422 UTC 22 April 2019)
found at http://www.aviationweather.gov/metar/data/
 
Forecast for: AMD
Text: TAF AMD EGPH 221303Z 2213/2312 13012KT CAVOK
Forecast period: 1300 to 1700 UTC 22 April 2019
Forecast type: FROM: standard forecast or significant change
Winds: from the SE (130 degrees) at 14 MPH (12 knots; 6.2 m/s)
Visibility: 6 or more miles 10+ km)
Ceiling: unknown
Clouds: missing
Weather: NSW  (no significant weather)
Text: BECMG 2217/2220 07009KT
Forecast period: 1700 UTC 22 April 2019 to 1200 UTC 23 April 2019
Forecast type: BECOMING: Conditions expected to become as follows by 2000 UTC 22 April 2019
Winds: from the ENE (70 degrees) at 10 MPH (9 knots; 4.6 m/s)
Visibility: 6 or more miles 10+ km)
Ceiling: unknown
Clouds: missing
Weather: NSW  (no significant weather)
Text: PROB30
Forecast period: 0000 to 0600 UTC 23 April 2019
Forecast type: TEMPORARY: The following changes expected for less than half the time period
Visibility: 5 miles (8 km)
Ceiling: 800 feet AGL
Clouds: broken clouds at 800 feet AGL
Weather: no significant weather forecast for this period